Time;durP1;ratioP1;P1;durP2;ratioP2;P2;SDS_P1;SDS_P2;PMS_P1;PMS_P2;Temp;Humidity;BMP_temperature;BMP_pressure;BME280_temperature;BME280_humidity;BME280_pressure;Samples;Min_cycle;Max_cycle;Signal;HPM_P1;HPM_P2
2022/11/14 00:01:22;;;;;;;64.40;34.80;;;;;;;7.98;75.67;100153.92;103653;1291;107930;-71
2022/11/14 00:03:50;;;;;;;63.80;33.00;;;;;;;7.98;75.70;100153.73;103661;1298;97869;-72
2022/11/14 00:06:21;;;;;;;55.90;31.00;;;;;;;7.99;75.75;100154.06;103733;1292;95632;-73
2022/11/14 00:08:49;;;;;;;56.50;31.80;;;;;;;7.97;75.58;100153.80;103641;1295;111258;-71
2022/11/14 00:11:16;;;;;;;57.70;32.20;;;;;;;7.95;75.67;100159.02;103563;1297;97892;-71
2022/11/14 00:13:45;;;;;;;59.20;31.80;;;;;;;7.94;75.63;100158.72;103728;1288;107472;-71
2022/11/14 00:16:16;;;;;;;62.60;33.40;;;;;;;7.94;75.68;100159.09;103668;1289;97851;-69
2022/11/14 00:18:44;;;;;;;61.70;32.50;;;;;;;7.91;75.60;100157.27;103715;1299;97950;-70
2022/11/14 00:21:11;;;;;;;56.00;31.50;;;;;;;7.89;75.69;100156.80;103713;1299;111132;-70
2022/11/14 00:23:39;;;;;;;57.50;30.70;;;;;;;7.89;75.77;100160.67;103673;1299;97891;-70
2022/11/14 00:26:11;;;;;;;56.80;30.40;;;;;;;7.89;75.82;100156.96;103681;1295;108079;-71
2022/11/14 00:28:38;;;;;;;55.90;28.40;;;;;;;7.88;75.69;100153.64;103669;1288;97947;-70
2022/11/14 00:31:11;;;;;;;53.60;29.70;;;;;;;7.87;75.72;100155.46;103710;1297;97881;-71
2022/11/14 00:33:39;;;;;;;62.20;31.90;;;;;;;7.87;75.75;100154.77;103698;1299;109567;-70
2022/11/14 00:36:11;;;;;;;53.60;29.20;;;;;;;7.86;75.74;100156.95;103707;1298;95080;-69
2022/11/14 00:38:42;;;;;;;59.10;30.40;;;;;;;7.84;75.74;100155.23;103682;1296;107436;-71
2022/11/14 00:41:10;;;;;;;55.90;28.30;;;;;;;7.82;75.65;100154.11;103683;1291;95272;-74
2022/11/14 00:43:41;;;;;;;53.90;29.40;;;;;;;7.79;75.74;100155.10;103714;1292;97045;-70
2022/11/14 00:46:09;;;;;;;54.60;28.90;;;;;;;7.80;75.76;100151.90;103655;1288;111123;-70
2022/11/14 00:48:37;;;;;;;58.20;28.90;;;;;;;7.81;75.67;100151.88;103695;1299;97867;-70
2022/11/14 00:51:06;;;;;;;54.10;28.20;;;;;;;7.81;75.81;100151.86;103670;1299;107454;-71
2022/11/14 00:53:37;;;;;;;53.90;29.30;;;;;;;7.80;75.75;100146.62;103723;1291;97866;-69
2022/11/14 00:56:05;;;;;;;53.10;28.30;;;;;;;7.79;75.80;100149.64;103667;1307;97901;-69
2022/11/14 00:58:36;;;;;;;53.30;28.70;;;;;;;7.79;75.78;100147.16;103622;1297;111622;-70
2022/11/14 01:01:07;;;;;;;53.20;28.30;;;;;;;7.80;75.88;100142.71;103659;1290;97883;-71
2022/11/14 01:03:35;;;;;;;51.60;28.50;;;;;;;7.80;75.88;100137.77;103685;1281;107496;-70
2022/11/14 01:06:10;;;;;;;54.20;27.20;;;;;;;7.80;75.79;100139.70;103707;1297;97736;-71
2022/11/14 01:08:37;;;;;;;48.00;27.40;;;;;;;7.81;75.90;100134.90;103711;1292;97896;-70
2022/11/14 01:11:16;;;;;;;54.70;27.40;;;;;;;7.81;75.89;100133.11;103660;1299;110812;-70
2022/11/14 01:13:47;;;;;;;48.60;25.80;;;;;;;7.82;75.85;100134.52;103615;1298;95195;-70
2022/11/14 01:16:19;;;;;;;50.90;28.30;;;;;;;7.82;75.80;100133.29;103702;1298;106317;-70
2022/11/14 01:18:50;;;;;;;50.10;26.70;;;;;;;7.83;75.87;100133.23;103618;1298;98482;-70
2022/11/14 01:21:18;;;;;;;55.10;28.10;;;;;;;7.84;75.89;100131.04;103665;1297;97958;-70
2022/11/14 01:23:45;;;;;;;54.50;27.80;;;;;;;7.84;75.85;100125.24;103658;1297;110743;-69
2022/11/14 01:26:17;;;;;;;53.70;28.00;;;;;;;7.84;75.97;100124.70;103694;1297;95153;-70
2022/11/14 01:28:45;;;;;;;49.90;27.50;;;;;;;7.85;75.80;100121.14;103651;1296;106597;-70
2022/11/14 01:31:19;;;;;;;50.80;28.70;;;;;;;7.86;75.79;100120.92;103688;1296;97960;-71
2022/11/14 01:33:52;;;;;;;50.40;26.30;;;;;;;7.85;75.89;100115.30;103476;1292;97983;-71
2022/11/14 01:36:24;;;;;;;48.10;24.10;;;;;;;7.85;75.87;100112.84;103637;1296;110872;-71
2022/11/14 01:38:56;;;;;;;50.70;26.50;;;;;;;7.85;75.80;100112.50;103706;1298;97837;-70
2022/11/14 01:41:24;;;;;;;49.50;25.80;;;;;;;7.83;75.78;100108.68;103628;1291;107123;-70
2022/11/14 01:43:55;;;;;;;46.50;25.70;;;;;;;7.82;75.83;100100.23;103618;1292;98976;-69
2022/11/14 01:46:42;;;;;;;46.00;25.00;;;;;;;7.81;75.81;100096.03;103679;1299;97876;-70
2022/11/14 01:49:21;;;;;;;46.80;24.40;;;;;;;7.80;75.74;100094.15;103622;1299;111030;-69
2022/11/14 01:52:06;;;;;;;47.20;25.10;;;;;;;7.78;75.88;100094.59;103532;1298;97956;-70
2022/11/14 01:54:43;;;;;;;43.80;23.40;;;;;;;7.76;75.85;100094.33;103425;1291;107300;-73
2022/11/14 01:57:22;;;;;;;43.60;22.30;;;;;;;7.73;75.80;100093.56;103530;1298;97932;-71
2022/11/14 01:59:58;;;;;;;40.70;21.90;;;;;;;7.72;75.75;100091.70;103634;1291;95167;-72
2022/11/14 02:02:26;;;;;;;45.10;23.80;;;;;;;7.72;75.89;100088.89;103662;1291;110861;-71
2022/11/14 02:05:11;;;;;;;43.70;22.40;;;;;;;7.71;75.83;100086.97;103682;1299;97969;-71
2022/11/14 02:07:43;;;;;;;38.80;20.70;;;;;;;7.71;75.88;100088.92;103437;1299;106508;-69
2022/11/14 02:10:19;;;;;;;38.70;20.30;;;;;;;7.67;75.78;100088.17;103634;1291;97950;-70
2022/11/14 02:12:52;;;;;;;39.70;20.90;;;;;;;7.64;75.76;100086.05;103683;1297;97945;-72
2022/11/14 02:15:25;;;;;;;34.80;18.10;;;;;;;7.61;75.76;100086.69;103682;1282;111156;-70
2022/11/14 02:17:53;;;;;;;36.90;18.60;;;;;;;7.55;75.74;100088.56;103692;1292;97882;-69
2022/11/14 02:20:33;;;;;;;34.80;18.10;;;;;;;7.52;75.77;100088.35;103672;1298;107462;-69
2022/11/14 02:23:01;;;;;;;31.10;16.10;;;;;;;7.51;75.73;100087.49;103706;1289;97980;-70
2022/11/14 02:25:29;;;;;;;31.20;16.60;;;;;;;7.50;75.70;100092.48;103711;1292;95211;-69
2022/11/14 02:28:01;;;;;;;32.30;16.60;;;;;;;7.49;75.79;100088.28;103660;1288;111164;-69
2022/11/14 02:30:32;;;;;;;31.40;15.80;;;;;;;7.51;75.87;100090.14;103469;1302;97868;-69
2022/11/14 02:33:00;;;;;;;27.50;13.10;;;;;;;7.51;75.78;100093.47;103675;1299;107429;-69
2022/11/14 02:35:50;;;;;;;28.60;14.00;;;;;;;7.51;75.74;100092.26;103673;1299;97917;-70
2022/11/14 02:38:18;;;;;;;27.40;14.20;;;;;;;7.51;75.75;100087.83;103687;1291;97962;-68
2022/11/14 02:40:46;;;;;;;28.40;13.70;;;;;;;7.53;75.85;100086.87;103646;1292;111096;-69
2022/11/14 02:43:13;;;;;;;27.40;13.90;;;;;;;7.54;75.79;100086.30;103694;1289;97860;-71
2022/11/14 02:45:41;;;;;;;26.80;13.50;;;;;;;7.52;75.67;100087.98;103646;1290;107546;-68
2022/11/14 02:48:09;;;;;;;27.70;13.70;;;;;;;7.48;75.73;100089.73;103594;1298;98033;-70
2022/11/14 02:50:37;;;;;;;26.60;13.30;;;;;;;7.47;75.62;100084.13;103635;1291;95129;-71
2022/11/14 02:53:08;;;;;;;23.70;12.00;;;;;;;7.46;75.65;100084.16;103617;1289;112035;-70
2022/11/14 02:55:36;;;;;;;27.40;13.70;;;;;;;7.46;75.70;100082.39;103662;1291;97948;-69
2022/11/14 02:58:04;;;;;;;26.20;12.50;;;;;;;7.46;75.64;100079.91;103619;1297;107146;-70
2022/11/14 03:00:33;;;;;;;26.50;12.80;;;;;;;7.45;75.63;100075.73;103663;1291;96160;-69
2022/11/14 03:03:13;;;;;;;25.40;12.80;;;;;;;7.44;75.74;100074.89;103614;1298;97874;-69
2022/11/14 03:05:41;;;;;;;27.50;14.00;;;;;;;7.44;75.63;100077.02;103614;1295;111342;-69
2022/11/14 03:08:09;;;;;;;26.40;13.10;;;;;;;7.41;75.66;100075.01;103729;1292;97876;-69
2022/11/14 03:10:37;;;;;;;27.10;13.40;;;;;;;7.41;75.70;100074.83;103677;1299;107217;-69
2022/11/14 03:13:04;;;;;;;25.50;13.10;;;;;;;7.42;75.61;100074.98;103665;1299;97950;-71
2022/11/14 03:15:39;;;;;;;25.00;12.50;;;;;;;7.42;75.63;100072.86;103651;1289;97930;-70
2022/11/14 03:18:06;;;;;;;24.70;12.40;;;;;;;7.42;75.61;100074.64;103523;1294;111207;-71
2022/11/14 03:20:34;;;;;;;25.30;12.40;;;;;;;7.40;75.69;100072.93;103734;1298;97905;-72
2022/11/14 03:23:06;;;;;;;24.40;12.90;;;;;;;7.40;75.65;100073.46;103679;1291;107248;-70
2022/11/14 03:25:34;;;;;;;25.20;11.90;;;;;;;7.40;75.67;100072.23;103658;1289;96971;-70
2022/11/14 03:28:01;;;;;;;25.00;12.30;;;;;;;7.39;75.60;100069.63;103670;1291;95201;-70
2022/11/14 03:30:30;;;;;;;25.20;12.30;;;;;;;7.39;75.70;100070.17;103677;1297;110587;-70
2022/11/14 03:33:01;;;;;;;22.50;11.60;;;;;;;7.38;75.57;100067.90;103522;1295;95135;-69
2022/11/14 03:35:29;;;;;;;24.30;11.90;;;;;;;7.37;75.56;100067.45;103710;1291;108760;-68
2022/11/14 03:37:57;;;;;;;23.00;11.20;;;;;;;7.31;75.53;100062.77;103638;1296;97983;-69
2022/11/14 03:40:24;;;;;;;24.40;12.00;;;;;;;7.25;75.42;100062.84;103666;1297;97898;-69
2022/11/14 03:42:52;;;;;;;23.30;11.50;;;;;;;7.12;75.41;100058.78;103622;1291;111734;-69
2022/11/14 03:45:20;;;;;;;22.90;10.70;;;;;;;7.06;75.34;100054.29;103678;1296;95317;-69
2022/11/14 03:47:48;;;;;;;24.10;11.70;;;;;;;7.03;75.51;100053.34;103664;1289;107817;-68
2022/11/14 03:50:16;;;;;;;24.20;11.80;;;;;;;7.01;75.61;100052.21;103645;1292;97917;-69
2022/11/14 03:52:50;;;;;;;23.00;11.00;;;;;;;7.02;75.66;100050.04;103689;1290;97856;-69
2022/11/14 03:55:18;;;;;;;24.70;11.70;;;;;;;7.04;75.71;100051.20;103685;1291;111231;-71
2022/11/14 03:57:49;;;;;;;25.50;12.50;;;;;;;7.05;75.68;100048.35;103670;1297;97900;-67
2022/11/14 04:00:20;;;;;;;24.00;12.00;;;;;;;7.07;75.66;100047.21;103605;1299;107163;-69
2022/11/14 04:02:48;;;;;;;25.00;11.10;;;;;;;7.09;75.65;100044.80;103629;1295;97978;-70
2022/11/14 04:05:15;;;;;;;22.10;10.70;;;;;;;7.09;75.65;100041.98;103681;1299;97976;-69
2022/11/14 04:07:43;;;;;;;24.90;11.40;;;;;;;7.06;75.59;100046.52;103670;1297;111195;-68
2022/11/14 04:10:11;;;;;;;25.40;12.30;;;;;;;7.06;75.58;100043.90;103674;1290;95166;-69
2022/11/14 04:12:39;;;;;;;22.80;11.20;;;;;;;7.07;75.64;100037.50;103684;1289;108047;-69
2022/11/14 04:15:07;;;;;;;25.70;11.40;;;;;;;7.06;75.46;100034.88;103688;1298;97958;-69
2022/11/14 04:17:34;;;;;;;24.00;11.20;;;;;;;7.03;75.48;100032.55;103648;1288;95170;-69
2022/11/14 04:20:13;;;;;;;22.70;10.60;;;;;;;7.01;75.55;100027.35;103663;1291;110755;-72
2022/11/14 04:22:41;;;;;;;24.00;11.60;;;;;;;7.01;75.60;100029.06;103640;1289;97959;-70
2022/11/14 04:25:13;;;;;;;22.90;12.00;;;;;;;7.01;75.57;100025.94;103647;1299;107739;-68
2022/11/14 04:27:43;;;;;;;24.90;11.40;;;;;;;7.00;75.53;100025.06;103638;1295;97955;-71
2022/11/14 04:30:11;;;;;;;22.70;11.90;;;;;;;6.97;75.41;100028.88;103659;1291;96566;-71
2022/11/14 04:32:39;;;;;;;24.30;11.20;;;;;;;6.94;75.50;100022.86;103641;1298;111138;-71
2022/11/14 04:35:07;;;;;;;25.90;12.20;;;;;;;6.95;75.50;100021.94;103712;1297;97865;-70
2022/11/14 04:37:37;;;;;;;23.10;11.50;;;;;;;6.97;75.54;100020.45;103688;1282;107241;-74
2022/11/14 04:40:09;;;;;;;28.30;12.80;;;;;;;6.99;75.61;100019.13;103677;1292;97889;-70
2022/11/14 04:42:37;;;;;;;21.90;10.90;;;;;;;6.98;75.43;100021.11;103457;1291;95209;-68
2022/11/14 04:45:09;;;;;;;23.20;11.10;;;;;;;6.94;75.42;100019.67;103556;1291;129012;-69
2022/11/14 04:47:37;;;;;;;25.90;12.50;;;;;;;6.94;75.58;100012.79;103691;1298;95075;-70
2022/11/14 04:50:08;;;;;;;22.70;11.00;;;;;;;6.95;75.61;100009.61;103647;1296;107932;-69
2022/11/14 04:52:38;;;;;;;23.90;11.10;;;;;;;6.94;75.49;100009.65;103600;1289;97950;-69
2022/11/14 04:55:09;;;;;;;25.10;11.70;;;;;;;6.90;75.52;100010.02;103587;1291;97877;-69
2022/11/14 04:57:37;;;;;;;27.10;12.10;;;;;;;6.86;75.43;100008.90;103666;1296;111452;-69
2022/11/14 05:00:06;;;;;;;24.30;12.20;;;;;;;6.83;75.56;100003.05;103624;1296;97910;-69
2022/11/14 05:02:34;;;;;;;24.30;11.60;;;;;;;6.83;75.58;100010.29;105224;1288;107913;-69
2022/11/14 05:05:02;;;;;;;24.00;11.40;;;;;;;6.85;75.62;100005.96;105390;1281;95722;-69
2022/11/14 05:07:30;;;;;;;26.70;12.10;;;;;;;6.88;75.51;100008.34;105156;1292;95518;-69
2022/11/14 05:09:58;;;;;;;25.90;11.70;;;;;;;6.91;75.59;100005.38;103503;1290;111798;-70
2022/11/14 05:12:26;;;;;;;24.40;11.70;;;;;;;6.94;75.58;100006.64;105175;1289;95509;-70
2022/11/14 05:14:54;;;;;;;24.50;11.30;;;;;;;6.94;75.47;100008.92;104530;1295;106578;-70
2022/11/14 05:17:22;;;;;;;23.60;11.70;;;;;;;6.92;75.47;100010.09;103654;1299;97922;-67
2022/11/14 05:19:50;;;;;;;24.70;12.20;;;;;;;6.92;75.53;100007.08;103615;1295;95231;-68
2022/11/14 05:22:19;;;;;;;26.60;12.30;;;;;;;6.88;75.34;100006.04;103614;1291;111462;-70
2022/11/14 05:24:48;;;;;;;25.60;13.60;;;;;;;6.77;75.26;100005.60;103594;1290;97954;-69
2022/11/14 05:27:16;;;;;;;24.70;12.50;;;;;;;6.70;75.41;100006.77;103684;1289;107131;-70
2022/11/14 05:29:44;;;;;;;26.00;13.40;;;;;;;6.66;75.42;100008.18;103643;1291;97943;-69
2022/11/14 05:32:11;;;;;;;27.30;14.30;;;;;;;6.62;75.42;100009.04;103687;1275;95501;-70
2022/11/14 05:34:43;;;;;;;27.20;14.00;;;;;;;6.55;75.36;100006.50;103655;1299;110747;-70
2022/11/14 05:37:12;;;;;;;25.50;13.00;;;;;;;6.49;75.45;100011.34;103695;1291;95334;-71
2022/11/14 05:39:40;;;;;;;24.70;12.70;;;;;;;6.43;75.42;100011.23;103718;1289;108038;-70
2022/11/14 05:42:08;;;;;;;28.00;13.80;;;;;;;6.38;75.52;100013.85;103591;1291;97738;-69
2022/11/14 05:44:36;;;;;;;25.00;13.30;;;;;;;6.33;75.63;100016.17;103627;1286;97020;-71
2022/11/14 05:47:04;;;;;;;26.40;13.40;;;;;;;6.26;75.81;100022.45;103611;1289;111783;-69
2022/11/14 05:49:31;;;;;;;28.50;14.00;;;;;;;6.17;75.72;100020.17;103646;1295;97948;-68
2022/11/14 05:51:59;;;;;;;26.80;13.90;;;;;;;6.09;75.72;100023.11;103482;1299;108176;-69
2022/11/14 05:54:27;;;;;;;25.20;12.90;;;;;;;6.09;75.73;100026.45;103400;1299;98056;-69
2022/11/14 05:56:55;;;;;;;27.30;14.60;;;;;;;6.09;75.97;100026.63;103566;1291;97954;-69
2022/11/14 05:59:23;;;;;;;32.00;18.00;;;;;;;6.04;75.71;100022.76;103526;1299;111268;-69
2022/11/14 06:01:50;;;;;;;28.10;15.10;;;;;;;5.99;75.70;100019.05;103605;1297;97767;-69
2022/11/14 06:04:26;;;;;;;30.10;15.60;;;;;;;5.99;75.79;100019.23;103613;1289;107697;-69
2022/11/14 06:06:53;;;;;;;24.20;13.20;;;;;;;6.01;75.78;100021.48;103657;1282;95211;-69
2022/11/14 06:09:25;;;;;;;23.20;12.30;;;;;;;6.04;75.84;100023.64;103683;1289;97863;-70
2022/11/14 06:11:53;;;;;;;24.30;11.70;;;;;;;6.06;75.71;100019.18;103617;1298;111134;-69
2022/11/14 06:14:20;;;;;;;25.90;13.00;;;;;;;6.03;75.63;100020.68;103701;1295;97934;-68
2022/11/14 06:16:48;;;;;;;25.70;14.80;;;;;;;6.04;75.68;100028.05;103656;1291;108077;-68
2022/11/14 06:19:20;;;;;;;24.20;12.70;;;;;;;6.06;75.87;100028.49;103654;1295;97860;-69
2022/11/14 06:21:49;;;;;;;25.40;13.00;;;;;;;6.08;75.67;100028.45;103687;1297;96597;-69
2022/11/14 06:24:16;;;;;;;25.90;12.80;;;;;;;6.05;75.77;100022.55;103635;1298;111336;-69
2022/11/14 06:26:44;;;;;;;24.10;13.80;;;;;;;6.06;75.69;100027.61;103698;1291;95445;-69
2022/11/14 06:29:14;;;;;;;25.90;14.00;;;;;;;6.08;75.92;100029.67;103664;1296;107709;-69
2022/11/14 06:31:42;;;;;;;26.40;14.70;;;;;;;6.09;75.92;100032.09;103618;1295;95151;-69
2022/11/14 06:34:14;;;;;;;27.00;15.20;;;;;;;6.11;75.93;100032.69;103618;1289;95211;-69
2022/11/14 06:36:42;;;;;;;28.80;15.70;;;;;;;6.16;75.93;100034.47;103651;1292;111382;-68
2022/11/14 06:39:09;;;;;;;28.50;14.70;;;;;;;6.17;75.80;100036.18;103714;1291;97962;-67
2022/11/14 06:41:37;;;;;;;27.30;15.50;;;;;;;6.11;75.72;100038.00;103687;1296;108135;-70
2022/11/14 06:44:10;;;;;;;36.90;18.20;;;;;;;6.07;75.77;100034.79;103698;1297;97957;-69
2022/11/14 06:46:38;;;;;;;29.10;14.30;;;;;;;6.09;75.88;100038.10;103699;1290;97898;-70
2022/11/14 06:49:06;;;;;;;29.20;16.00;;;;;;;6.09;75.76;100036.51;103570;1292;111116;-69
2022/11/14 06:51:34;;;;;;;28.60;14.20;;;;;;;6.05;75.90;100041.38;103696;1297;97852;-69
2022/11/14 06:54:02;;;;;;;30.60;14.60;;;;;;;6.05;75.94;100049.49;103641;1291;108090;-69
2022/11/14 06:56:29;;;;;;;30.20;14.50;;;;;;;6.02;75.76;100045.92;103601;1292;98412;-69
2022/11/14 06:58:57;;;;;;;30.20;15.00;;;;;;;6.00;75.78;100048.44;103616;1289;98010;-68
2022/11/14 07:01:27;;;;;;;27.20;14.30;;;;;;;6.01;76.10;100044.54;103639;1297;111895;-68
2022/11/14 07:03:57;;;;;;;28.40;14.50;;;;;;;6.01;75.86;100042.94;103628;1296;97709;-70
2022/11/14 07:06:32;;;;;;;31.00;15.80;;;;;;;6.00;75.85;100042.81;103641;1290;106753;-70
2022/11/14 07:09:00;;;;;;;27.30;14.30;;;;;;;5.99;75.98;100042.13;103672;1291;97879;-69
2022/11/14 07:11:28;;;;;;;32.30;15.70;;;;;;;5.98;75.90;100036.02;103693;1297;97837;-71
2022/11/14 07:14:06;;;;;;;31.90;17.30;;;;;;;5.96;75.86;100034.31;103644;1288;111562;-67
2022/11/14 07:16:35;;;;;;;;;;;;;;;5.96;75.94;100032.89;103640;1291;97866;-71
2022/11/14 07:19:10;;;;;;;29.30;16.40;;;;;;;5.93;76.08;100029.48;103579;1292;107410;-72
2022/11/14 07:21:40;;;;;;;28.40;15.50;;;;;;;5.93;76.07;100029.15;103612;1292;97863;-70
2022/11/14 07:24:07;;;;;;;29.00;15.10;;;;;;;5.95;76.05;100029.41;103513;1286;95192;-70
2022/11/14 07:26:35;;;;;;;29.10;15.80;;;;;;;6.00;76.08;100030.67;103574;1292;111117;-68
2022/11/14 07:29:03;;;;;;;29.70;15.90;;;;;;;6.04;76.10;100028.94;103673;1290;98440;-68
2022/11/14 07:31:34;;;;;;;35.60;18.00;;;;;;;6.06;76.11;100030.98;103601;1298;107783;-70
2022/11/14 07:34:02;;;;;;;31.30;16.90;;;;;;;6.09;76.16;100029.61;103630;1297;97901;-70
2022/11/14 07:36:30;;;;;;;32.60;17.50;;;;;;;6.14;76.18;100027.86;103668;1291;97917;-68
2022/11/14 07:38:58;;;;;;;34.10;19.10;;;;;;;6.19;76.39;100022.38;103646;1290;111423;-70
2022/11/14 07:41:26;;;;;;;31.70;17.40;;;;;;;6.25;76.34;100022.49;103663;1297;97900;-69
2022/11/14 07:43:54;;;;;;;33.50;17.40;;;;;;;6.32;76.29;100021.14;103596;1297;107143;-69
2022/11/14 07:46:21;;;;;;;33.50;17.70;;;;;;;6.38;76.27;100015.61;103626;1292;97902;-68
2022/11/14 07:48:50;;;;;;;35.00;20.50;;;;;;;6.45;76.41;100012.21;103625;1299;97861;-68
2022/11/14 07:51:20;;;;;;;36.50;19.30;;;;;;;6.48;76.21;100010.83;103711;1292;111129;-69
2022/11/14 07:53:52;;;;;;;36.50;19.50;;;;;;;6.52;76.21;100010.50;103542;1299;97900;-68
2022/11/14 07:56:24;;;;;;;32.80;19.40;;;;;;;6.57;76.42;100010.65;103598;1292;108044;-69
2022/11/14 07:58:55;;;;;;;37.40;20.90;;;;;;;6.62;76.39;100012.20;103622;1297;97881;-70
2022/11/14 08:01:23;;;;;;;34.90;19.40;;;;;;;6.63;76.22;100017.47;103656;1282;97919;-70
2022/11/14 08:03:51;;;;;;;37.30;20.40;;;;;;;6.61;76.40;100016.29;103462;1295;111420;-70
2022/11/14 08:06:22;;;;;;;35.70;19.40;;;;;;;6.64;76.31;100018.46;103732;1292;98517;-69
2022/11/14 08:08:50;;;;;;;34.40;19.10;;;;;;;6.64;76.24;100021.11;103637;1298;107627;-69
2022/11/14 08:11:46;;;;;;;34.90;19.30;;;;;;;6.59;76.03;100020.59;103648;1291;97929;-71
2022/11/14 08:14:08;;;;;;;33.50;19.60;;;;;;;6.59;76.22;100018.69;103690;1289;97949;-69
2022/11/14 08:16:36;;;;;;;34.90;17.90;;;;;;;6.57;76.29;100013.12;103619;1292;111225;-69
2022/11/14 08:19:04;;;;;;;31.50;18.60;;;;;;;6.56;76.23;100013.33;103575;1282;97993;-68
2022/11/14 08:21:31;;;;;;;36.00;19.50;;;;;;;6.57;76.25;100010.82;104304;1289;108193;-71
2022/11/14 08:23:59;;;;;;;33.60;17.80;;;;;;;6.62;76.51;100006.39;103673;1292;97941;-69
2022/11/14 08:26:27;;;;;;;32.10;17.20;;;;;;;6.67;76.44;100002.84;103684;1298;98107;-69
2022/11/14 08:29:05;;;;;;;31.80;17.50;;;;;;;6.72;76.51;99999.65;103634;1291;111727;-68
2022/11/14 08:31:34;;;;;;;33.20;19.70;;;;;;;6.77;76.45;99994.48;103609;1295;97880;-69
2022/11/14 08:34:04;;;;;;;36.40;20.80;;;;;;;6.83;76.48;99991.95;103653;1295;107461;-69
2022/11/14 08:36:32;;;;;;;38.90;21.40;;;;;;;6.88;76.46;99991.39;103599;1297;98632;-68
2022/11/14 08:39:02;;;;;;;33.60;18.70;;;;;;;6.93;76.37;99989.23;103680;1295;97946;-69
2022/11/14 08:41:30;;;;;;;33.90;17.50;;;;;;;6.97;76.51;99991.17;103617;1289;111693;-69
2022/11/14 08:43:58;;;;;;;31.50;15.70;;;;;;;6.99;76.40;99986.84;103648;1292;97902;-68
2022/11/14 08:46:26;;;;;;;30.30;16.90;;;;;;;7.00;76.36;99989.10;103590;1297;107965;-69
2022/11/14 08:48:57;;;;;;;30.70;16.40;;;;;;;6.94;76.22;99993.96;103500;1291;95202;-68
2022/11/14 08:51:25;;;;;;;29.70;15.30;;;;;;;6.89;76.38;99990.98;103675;1297;96975;-69
2022/11/14 08:53:53;;;;;;;29.90;14.80;;;;;;;6.92;76.44;99994.07;103640;1297;111456;-69
2022/11/14 08:56:24;;;;;;;30.20;15.20;;;;;;;6.93;76.38;99992.39;103650;1289;97960;-69
2022/11/14 08:58:52;;;;;;;30.10;15.60;;;;;;;6.93;76.30;99989.41;103649;1299;107167;-69
2022/11/14 09:01:20;;;;;;;28.40;15.60;;;;;;;6.93;76.42;99987.28;103668;1291;96944;-68
2022/11/14 09:03:48;;;;;;;30.70;16.20;;;;;;;6.95;76.33;99987.72;103674;1286;95095;-69
2022/11/14 09:06:28;;;;;;;28.40;14.80;;;;;;;6.98;76.45;99987.91;103628;1291;111645;-68
2022/11/14 09:09:00;;;;;;;31.50;15.60;;;;;;;6.96;76.27;99988.37;103625;1297;97865;-70
2022/11/14 09:11:28;;;;;;;30.00;16.20;;;;;;;6.81;76.21;99983.38;103524;1292;107784;-70
2022/11/14 09:13:55;;;;;;;30.20;16.30;;;;;;;6.71;76.26;99977.63;103622;1282;97967;-69
2022/11/14 09:16:23;;;;;;;33.50;17.10;;;;;;;6.72;76.34;99977.42;103676;1298;97995;-70
2022/11/14 09:18:51;;;;;;;31.50;16.20;;;;;;;6.71;76.38;99973.42;103613;1291;111081;-67
2022/11/14 09:21:22;;;;;;;31.00;16.00;;;;;;;6.62;76.29;99969.73;103666;1297;97651;-68
2022/11/14 09:23:51;;;;;;;29.80;15.50;;;;;;;6.55;76.28;99972.82;103643;1299;107607;-69
2022/11/14 09:26:35;;;;;;;28.90;16.40;;;;;;;6.50;76.22;99971.27;103642;1291;97837;-71
2022/11/14 09:29:05;;;;;;;28.20;15.00;;;;;;;6.47;76.49;99967.68;103673;1295;97981;-67
2022/11/14 09:31:36;;;;;;;;;;;;;;;6.47;76.47;99963.13;103639;1290;111530;-69
2022/11/14 09:34:04;;;;;;;29.20;15.70;;;;;;;6.44;76.51;99960.04;103684;1290;98522;-68
2022/11/14 09:36:35;;;;;;;30.40;15.30;;;;;;;6.48;76.64;99960.27;103622;1283;108138;-69
2022/11/14 09:39:06;;;;;;;32.10;15.00;;;;;;;6.53;76.71;99959.67;103698;1291;97835;-68
2022/11/14 09:41:56;;;;;;;26.40;14.30;;;;;;;6.62;76.60;99955.48;103675;1291;97870;-68
2022/11/14 09:44:57;;;;;;;28.10;14.50;;;;;;;6.65;76.59;99961.12;103651;1295;111720;-68
2022/11/14 09:47:43;;;;;;;35.80;16.60;;;;;;;6.55;76.47;99959.80;103661;1282;97867;-68
2022/11/14 09:50:27;;;;;;;30.10;15.60;;;;;;;6.44;76.53;99958.66;103617;1298;107494;-69
2022/11/14 09:53:10;;;;;;;28.60;14.40;;;;;;;6.43;76.66;99957.10;103640;1297;98073;-69
2022/11/14 09:55:37;;;;;;;28.80;14.60;;;;;;;6.48;76.66;99954.99;103625;1292;97847;-69
2022/11/14 09:58:21;;;;;;;27.40;14.20;;;;;;;6.53;76.72;99950.55;103594;1290;111279;-70
2022/11/14 10:01:09;;;;;;;29.00;14.90;;;;;;;6.58;76.62;99953.68;103411;1302;97808;-69
2022/11/14 10:03:56;;;;;;;31.60;15.10;;;;;;;6.64;76.64;99952.71;103633;1292;107357;-71
2022/11/14 10:07:06;;;;;;;30.30;15.70;;;;;;;6.73;76.78;99949.36;103664;1291;98534;-70
2022/11/14 10:09:59;;;;;;;27.90;15.30;;;;;;;6.82;76.77;99941.90;103596;1292;97885;-69
2022/11/14 10:12:45;;;;;;;31.50;15.60;;;;;;;6.91;76.67;99936.61;103624;1299;112064;-68
2022/11/14 10:15:37;;;;;;;28.00;15.50;;;;;;;6.91;76.45;99934.66;103542;1291;96264;-69
2022/11/14 10:18:23;;;;;;;27.80;15.20;;;;;;;6.88;76.36;99934.77;103667;1295;108241;-68
2022/11/14 10:21:09;;;;;;;28.30;16.00;;;;;;;6.77;76.27;99931.89;103594;1291;97967;-69
2022/11/14 10:24:11;;;;;;;26.90;14.60;;;;;;;6.73;76.40;99928.73;103654;1289;97805;-68
2022/11/14 10:26:53;;;;;;;28.40;14.60;;;;;;;6.73;76.42;99922.94;103622;1299;111794;-67
2022/11/14 10:29:40;;;;;;;30.20;13.80;;;;;;;6.77;76.61;99919.21;103632;1299;97930;-68
2022/11/14 10:32:36;;;;;;;26.00;13.00;;;;;;;6.85;76.63;99913.22;103628;1289;107409;-68
2022/11/14 10:35:22;;;;;;;30.20;15.50;;;;;;;6.89;76.54;99914.84;103593;1307;96942;-69
2022/11/14 10:38:10;;;;;;;29.20;14.60;;;;;;;6.90;76.50;99912.51;103653;1290;98540;-69
2022/11/14 10:41:01;;;;;;;28.10;15.40;;;;;;;6.94;76.56;99908.61;103598;1299;111758;-69
2022/11/14 10:43:53;;;;;;;27.90;15.10;;;;;;;6.95;76.50;99909.45;103672;1297;97971;-68
2022/11/14 10:46:47;;;;;;;28.50;14.40;;;;;;;6.91;76.37;99907.53;103626;1291;106069;-68
2022/11/14 10:49:21;;;;;;;;;;;;;;;6.89;76.47;99903.52;103722;1289;97985;-68
2022/11/14 10:52:07;;;;;;;26.30;14.10;;;;;;;6.93;76.74;99901.95;103747;1292;97882;-68
2022/11/14 10:54:50;;;;;;;31.10;16.10;;;;;;;7.01;76.70;99896.83;103689;1282;111422;-68
2022/11/14 10:57:23;;;;;;;27.40;14.80;;;;;;;7.01;76.53;99899.49;103697;1297;95275;-69
2022/11/14 10:59:55;;;;;;;32.80;15.90;;;;;;;6.98;76.59;99898.02;103620;1297;108054;-68
2022/11/14 11:02:23;;;;;;;26.50;14.40;;;;;;;6.96;76.55;99899.69;103629;1297;98301;-69
2022/11/14 11:04:51;;;;;;;28.20;15.60;;;;;;;6.93;76.51;99892.77;103683;1289;97837;-68
2022/11/14 11:13:32;;;;;;;31.90;16.10;;;;;;;7.05;76.70;99881.14;103700;1289;106508;-70
2022/11/14 11:16:04;;;;;;;30.00;17.60;;;;;;;7.08;76.49;99876.59;103688;1286;97860;-68
2022/11/14 11:18:37;;;;;;;28.80;15.20;;;;;;;7.09;76.55;99876.56;103722;1296;95089;-68
2022/11/14 11:21:14;;;;;;;28.40;14.70;;;;;;;7.10;76.55;99876.67;103670;1295;111446;-68
2022/11/14 11:23:56;;;;;;;28.70;14.20;;;;;;;7.17;76.64;99880.23;103705;1295;95279;-68
2022/11/14 11:26:30;;;;;;;31.70;14.50;;;;;;;7.23;76.67;99880.34;103659;1292;107144;-68
2022/11/14 11:29:07;;;;;;;27.90;14.20;;;;;;;7.29;76.85;99875.12;103558;1292;97986;-69
2022/11/14 11:31:57;;;;;;;27.60;14.10;;;;;;;7.37;76.81;99871.02;103682;1291;96428;-69
2022/11/14 11:34:33;;;;;;;28.10;14.20;;;;;;;7.43;76.72;99868.98;103715;1289;110885;-71
2022/11/14 11:37:30;;;;;;;29.70;14.90;;;;;;;7.49;76.75;99867.67;103710;1291;95082;-69